createdAt,value
2018-05-27T00:01:53.752Z,10.00
2018-05-27T00:04:19.489Z,12.27
2018-05-27T00:06:45.204Z,11.13
2018-05-27T00:09:10.940Z,11.33
2018-05-27T00:11:36.656Z,11.40
2018-05-27T00:14:02.404Z,11.10
2018-05-27T00:16:28.119Z,11.73
2018-05-27T00:18:53.868Z,12.90
2018-05-27T00:21:19.588Z,9.60
2018-05-27T00:23:45.335Z,12.70
2018-05-27T00:26:11.061Z,11.00
2018-05-27T00:28:36.796Z,11.30
2018-05-27T00:31:02.532Z,11.30
2018-05-27T00:33:28.328Z,11.00
2018-05-27T00:35:54.064Z,12.33
2018-05-27T00:38:19.784Z,11.43
2018-05-27T00:40:45.517Z,11.37
2018-05-27T00:43:11.248Z,10.70
2018-05-27T00:45:36.980Z,12.10
2018-05-27T00:48:02.713Z,11.97
2018-05-27T00:50:28.456Z,12.43
2018-05-27T00:52:54.173Z,12.03
2018-05-27T00:55:19.912Z,12.17
2018-05-27T00:57:45.635Z,12.47
2018-05-27T01:00:11.403Z,13.23
2018-05-27T01:02:37.112Z,13.80
2018-05-27T01:05:02.852Z,13.50
2018-05-27T01:07:28.576Z,14.53
2018-05-27T01:09:54.309Z,15.37
2018-05-27T01:12:20.044Z,14.93
2018-05-27T01:14:45.780Z,14.10
2018-05-27T01:17:11.551Z,14.90
2018-05-27T01:19:37.297Z,14.00
2018-05-27T01:22:03.037Z,15.47
2018-05-27T01:24:28.773Z,15.40
2018-05-27T01:26:54.508Z,16.30
2018-05-27T01:29:20.253Z,16.53
2018-05-27T01:31:45.979Z,18.50
2018-05-27T01:34:11.724Z,19.50
2018-05-27T01:36:37.735Z,18.97
2018-05-27T01:39:04.363Z,16.40
2018-05-27T01:41:30.117Z,18.83
2018-05-27T01:43:55.854Z,20.83
2018-05-27T01:46:21.601Z,21.50
2018-05-27T01:48:47.332Z,19.00
2018-05-27T01:51:13.080Z,18.17
2018-05-27T01:53:38.812Z,22.50
2018-05-27T01:56:04.564Z,22.83
2018-05-27T01:58:30.289Z,23.43
2018-05-27T02:00:56.027Z,21.00
2018-05-27T02:03:21.834Z,25.23
2018-05-27T02:05:47.593Z,25.50
2018-05-27T02:08:13.347Z,26.67
2018-05-27T02:10:39.557Z,27.73
2018-05-27T02:13:05.420Z,28.60
2018-05-27T02:15:31.171Z,30.50
2018-05-27T02:17:56.898Z,30.67
2018-05-27T02:20:22.962Z,32.87
2018-05-27T02:22:48.695Z,34.77
2018-05-27T02:25:14.431Z,35.77
2018-05-27T02:27:40.454Z,35.63
2018-05-27T02:30:06.212Z,39.10
2018-05-27T02:32:31.930Z,37.90
2018-05-27T02:34:57.668Z,35.60
2018-05-27T02:37:23.392Z,38.20
2018-05-27T02:39:49.116Z,37.27
2018-05-27T02:42:14.856Z,39.43
2018-05-27T02:44:40.576Z,40.87
2018-05-27T02:47:06.347Z,39.57
2018-05-27T02:49:32.064Z,39.73
2018-05-27T02:51:58.624Z,38.30
2018-05-27T02:54:24.360Z,38.50
2018-05-27T02:56:50.088Z,37.90
2018-05-27T02:59:16.101Z,37.00
2018-05-27T03:01:41.882Z,36.57
2018-05-27T03:04:07.628Z,37.83
2018-05-27T03:06:33.392Z,36.43
2018-05-27T03:08:59.118Z,39.47
2018-05-27T03:11:24.856Z,38.07
2018-05-27T03:13:50.581Z,35.67
2018-05-27T03:16:16.503Z,39.50
2018-05-27T03:18:42.233Z,34.93
2018-05-27T03:21:07.965Z,34.20
2018-05-27T03:23:33.683Z,39.23
2018-05-27T03:25:59.423Z,37.77
2018-05-27T03:28:25.141Z,38.17
2018-05-27T03:30:50.879Z,34.73
2018-05-27T03:33:16.603Z,37.20
2018-05-27T03:35:42.336Z,37.60
2018-05-27T03:38:08.079Z,35.27
2018-05-27T03:40:33.816Z,36.17
2018-05-27T03:42:59.528Z,35.43
2018-05-27T03:45:25.257Z,36.10
2018-05-27T03:47:50.977Z,35.70
2018-05-27T03:50:16.704Z,36.47
2018-05-27T03:52:42.444Z,36.63
2018-05-27T03:55:08.163Z,36.20
2018-05-27T03:57:33.888Z,36.23
2018-05-27T03:59:59.616Z,38.63
2018-05-27T04:02:25.364Z,40.80
2018-05-27T04:05:03.586Z,40.10
2018-05-27T04:07:41.858Z,37.70
2018-05-27T04:10:07.603Z,37.83
2018-05-27T04:12:33.348Z,33.20
2018-05-27T04:14:59.079Z,31.97
2018-05-27T04:17:24.836Z,30.37
2018-05-27T04:19:50.575Z,31.17
2018-05-27T04:22:16.316Z,30.57
2018-05-27T04:24:42.045Z,29.90
2018-05-27T04:27:07.796Z,30.63
2018-05-27T04:29:33.543Z,30.63
2018-05-27T04:31:59.279Z,28.80
2018-05-27T04:34:25.028Z,24.57
2018-05-27T04:36:50.769Z,25.40
2018-05-27T04:39:16.501Z,26.13
2018-05-27T04:41:42.249Z,24.70
2018-05-27T04:44:07.983Z,24.93
2018-05-27T04:46:33.721Z,24.23
2018-05-27T04:48:59.450Z,24.17
2018-05-27T04:51:25.205Z,21.27
2018-05-27T04:53:50.944Z,22.20
2018-05-27T04:56:16.696Z,19.40
2018-05-27T04:58:42.432Z,18.77
2018-05-27T05:01:08.166Z,17.77
2018-05-27T05:03:33.911Z,17.37
2018-05-27T05:05:59.635Z,17.47
2018-05-27T05:08:25.389Z,16.87
2018-05-27T05:10:51.125Z,18.57
2018-05-27T05:13:16.861Z,16.77
2018-05-27T05:15:42.600Z,15.83
2018-05-27T05:18:08.368Z,17.07
2018-05-27T05:20:34.104Z,15.60
2018-05-27T05:22:59.847Z,16.30
2018-05-27T05:25:25.568Z,16.40
2018-05-27T05:27:51.315Z,18.07
2018-05-27T05:30:17.052Z,16.57
2018-05-27T05:32:42.810Z,16.90
2018-05-27T05:35:08.535Z,16.57
2018-05-27T05:37:34.280Z,14.83
2018-05-27T05:40:00.018Z,16.00
2018-05-27T05:42:25.768Z,16.73
2018-05-27T05:44:51.501Z,16.93
2018-05-27T05:47:17.248Z,17.00
2018-05-27T05:49:42.968Z,14.53
2018-05-27T05:52:08.722Z,14.30
2018-05-27T05:54:34.460Z,12.07
2018-05-27T05:57:00.200Z,12.50
2018-05-27T05:59:25.935Z,11.37
2018-05-27T06:01:51.685Z,12.13
2018-05-27T06:04:17.419Z,11.50
2018-05-27T06:06:43.148Z,11.93
2018-05-27T06:09:08.900Z,11.30
2018-05-27T06:11:34.645Z,11.83
2018-05-27T06:14:00.384Z,11.53
2018-05-27T06:16:26.126Z,11.50
2018-05-27T06:18:51.891Z,10.80
2018-05-27T06:21:17.632Z,11.47
2018-05-27T06:23:43.384Z,11.37
2018-05-27T06:26:09.117Z,11.70
2018-05-27T06:28:34.865Z,10.70
2018-05-27T06:31:00.595Z,11.13
2018-05-27T06:33:26.343Z,11.10
2018-05-27T06:35:52.084Z,10.40
2018-05-27T06:38:17.838Z,9.67
2018-05-27T06:40:43.571Z,9.10
2018-05-27T06:43:09.320Z,8.73
2018-05-27T06:45:35.067Z,8.20
2018-05-27T06:48:00.809Z,7.50
2018-05-27T06:50:26.610Z,7.53
2018-05-27T06:52:52.358Z,8.40
2018-05-27T06:55:18.087Z,7.53
2018-05-27T06:57:43.827Z,7.20
2018-05-27T07:00:09.564Z,7.83
2018-05-27T07:02:35.299Z,8.07
2018-05-27T07:05:01.042Z,7.80
2018-05-27T07:07:26.788Z,7.47
2018-05-27T07:09:52.520Z,7.40
2018-05-27T07:12:18.261Z,8.57
2018-05-27T07:14:44.012Z,7.50
2018-05-27T07:17:09.796Z,7.57
2018-05-27T07:19:35.504Z,6.90
2018-05-27T07:22:01.232Z,7.53
2018-05-27T07:24:26.976Z,8.07
2018-05-27T07:26:52.717Z,8.47
2018-05-27T07:29:18.475Z,8.70
2018-05-27T07:31:44.224Z,8.67
2018-05-27T07:34:09.967Z,8.10
2018-05-27T07:36:35.715Z,8.40
2018-05-27T07:39:01.462Z,8.53
2018-05-27T07:41:27.200Z,8.93
2018-05-27T07:43:52.959Z,9.20
2018-05-27T07:46:18.700Z,8.70
2018-05-27T07:48:44.435Z,9.30
2018-05-27T07:51:10.171Z,8.80
2018-05-27T07:53:35.916Z,8.90
2018-05-27T07:56:01.673Z,9.20
2018-05-27T07:58:27.458Z,8.57
2018-05-27T08:00:53.165Z,8.80
2018-05-27T08:03:18.907Z,9.03
2018-05-27T08:05:44.641Z,9.37
2018-05-27T08:08:10.405Z,9.40
2018-05-27T08:10:36.129Z,9.43
2018-05-27T08:13:01.889Z,9.57
2018-05-27T08:15:27.627Z,11.50
2018-05-27T08:17:53.526Z,10.90
2018-05-27T08:20:19.284Z,10.47
2018-05-27T08:22:45.022Z,9.87
2018-05-27T08:25:10.764Z,9.80
2018-05-27T08:27:36.517Z,10.60
2018-05-27T08:30:02.275Z,10.63
2018-05-27T08:32:28.009Z,10.80
2018-05-27T08:34:53.777Z,9.77
2018-05-27T08:37:19.512Z,8.97
2018-05-27T08:39:45.285Z,8.87
2018-05-27T08:42:11.031Z,9.23
2018-05-27T08:44:36.786Z,9.03
2018-05-27T08:47:02.517Z,9.43
2018-05-27T08:49:28.267Z,7.57
2018-05-27T08:51:54.013Z,7.53
2018-05-27T08:54:19.763Z,7.70
2018-05-27T08:56:45.496Z,7.73
2018-05-27T08:59:11.256Z,7.13
2018-05-27T09:01:36.975Z,6.97
2018-05-27T09:04:02.730Z,7.17
2018-05-27T09:06:28.474Z,6.93
2018-05-27T09:08:54.292Z,5.93
2018-05-27T09:11:19.986Z,6.47
2018-05-27T09:13:46.520Z,6.17
2018-05-27T09:16:12.258Z,6.70
2018-05-27T09:18:37.999Z,5.93
2018-05-27T09:21:03.729Z,6.17
2018-05-27T09:23:29.465Z,5.67
2018-05-27T09:25:55.235Z,6.53
2018-05-27T09:28:20.961Z,5.60
2018-05-27T09:30:46.710Z,6.33
2018-05-27T09:33:12.444Z,6.20
2018-05-27T09:35:38.181Z,6.63
2018-05-27T09:38:03.924Z,6.13
2018-05-27T09:40:29.659Z,6.73
2018-05-27T09:42:55.388Z,6.23
2018-05-27T09:45:21.171Z,6.73
2018-05-27T09:47:48.477Z,7.97
2018-05-27T09:50:14.227Z,6.00
2018-05-27T09:52:39.954Z,5.80
2018-05-27T09:55:06.571Z,6.40
2018-05-27T09:57:32.299Z,6.00
2018-05-27T09:59:58.043Z,5.53
2018-05-27T10:02:23.780Z,6.03
2018-05-27T10:04:49.548Z,5.50
2018-05-27T10:07:15.281Z,5.93
2018-05-27T10:09:41.032Z,5.40
2018-05-27T10:12:06.785Z,6.17
2018-05-27T10:14:32.531Z,4.97
2018-05-27T10:16:58.273Z,5.03
2018-05-27T10:19:24.033Z,5.03
2018-05-27T10:21:49.773Z,4.80
2018-05-27T10:24:15.530Z,6.03
2018-05-27T10:26:41.275Z,4.77
2018-05-27T10:29:07.014Z,4.73
2018-05-27T10:31:32.744Z,4.00
2018-05-27T10:33:58.475Z,4.63
2018-05-27T10:36:24.208Z,4.43
2018-05-27T10:38:49.946Z,4.80
2018-05-27T10:41:15.824Z,4.57
2018-05-27T10:43:41.579Z,5.20
2018-05-27T10:46:07.317Z,5.10
2018-05-27T10:48:33.049Z,5.90
2018-05-27T10:50:59.121Z,5.20
2018-05-27T10:53:24.851Z,5.30
2018-05-27T10:55:50.593Z,5.40
2018-05-27T10:58:16.336Z,5.93
2018-05-27T11:00:42.079Z,5.80
2018-05-27T11:03:07.810Z,5.17
2018-05-27T11:05:33.561Z,6.47
2018-05-27T11:07:59.285Z,5.43
2018-05-27T11:10:25.029Z,5.13
2018-05-27T11:12:50.755Z,4.80
2018-05-27T11:15:16.499Z,5.47
2018-05-27T11:17:42.267Z,4.97
2018-05-27T11:20:08.006Z,5.80
2018-05-27T11:22:33.729Z,5.73
2018-05-27T11:24:59.476Z,6.00
2018-05-27T11:27:25.220Z,6.30
2018-05-27T11:29:51.003Z,6.00
2018-05-27T11:32:16.700Z,6.63
2018-05-27T11:34:42.444Z,5.90
2018-05-27T11:37:08.185Z,5.50
2018-05-27T11:39:33.913Z,5.73
2018-05-27T11:41:59.655Z,5.83
2018-05-27T11:44:25.393Z,6.70
2018-05-27T11:46:51.136Z,6.40
2018-05-27T11:49:16.902Z,6.70
2018-05-27T11:51:42.636Z,6.33
2018-05-27T11:54:08.355Z,7.40
2018-05-27T11:56:34.096Z,7.87
2018-05-27T11:58:59.837Z,7.17
2018-05-27T12:01:25.565Z,7.33
2018-05-27T12:03:51.301Z,8.50
2018-05-27T12:06:17.041Z,7.63
2018-05-27T12:08:42.764Z,7.30
2018-05-27T12:11:08.508Z,7.77
2018-05-27T12:13:34.264Z,8.60
2018-05-27T12:16:00.017Z,9.03
2018-05-27T12:18:25.744Z,8.70
2018-05-27T12:20:51.498Z,7.83
2018-05-27T12:23:17.251Z,7.33
2018-05-27T12:25:43.008Z,7.87
2018-05-27T12:28:08.736Z,8.27
2018-05-27T12:30:34.505Z,7.80
2018-05-27T12:33:00.241Z,6.93
2018-05-27T12:35:25.997Z,7.47
2018-05-27T12:37:51.726Z,7.80
2018-05-27T12:40:17.500Z,8.57
2018-05-27T12:42:43.233Z,8.60
2018-05-27T12:45:08.977Z,8.23
2018-05-27T12:47:34.721Z,7.93
2018-05-27T12:50:00.464Z,8.93
2018-05-27T12:52:26.211Z,8.93
2018-05-27T12:54:51.945Z,7.87
2018-05-27T12:57:17.711Z,8.70
2018-05-27T12:59:43.448Z,8.90
2018-05-27T13:02:09.222Z,8.70
2018-05-27T13:04:34.966Z,9.33
2018-05-27T13:07:00.716Z,9.03
2018-05-27T13:09:26.565Z,10.60
2018-05-27T13:11:52.316Z,9.80
2018-05-27T13:14:18.064Z,9.20
2018-05-27T13:16:43.974Z,9.07
2018-05-27T13:19:09.547Z,10.50
2018-05-27T13:21:35.308Z,9.77
2018-05-27T13:24:01.462Z,9.83
2018-05-27T13:26:27.970Z,9.97
2018-05-27T13:28:53.751Z,9.93
2018-05-27T13:31:19.502Z,9.90
2018-05-27T13:33:45.868Z,8.77
2018-05-27T13:36:11.850Z,8.83
2018-05-27T13:38:37.593Z,9.60
2018-05-27T13:41:03.344Z,10.07
2018-05-27T13:43:29.090Z,9.93
2018-05-27T13:45:54.838Z,11.00
2018-05-27T13:48:20.589Z,9.33
2018-05-27T13:50:46.364Z,9.43
2018-05-27T13:53:19.139Z,9.07
2018-05-27T13:55:44.875Z,10.27
2018-05-27T13:58:10.640Z,9.57
2018-05-27T14:00:36.380Z,9.80
2018-05-27T14:03:02.131Z,9.60
2018-05-27T14:05:27.876Z,8.57
2018-05-27T14:07:53.631Z,9.67
2018-05-27T14:10:19.405Z,8.37
2018-05-27T14:12:45.127Z,9.83
2018-05-27T14:15:10.894Z,8.60
2018-05-27T14:17:36.644Z,11.43
2018-05-27T14:20:02.376Z,8.33
2018-05-27T14:22:28.107Z,7.57
2018-05-27T14:24:53.836Z,6.80
2018-05-27T14:27:19.596Z,7.10
2018-05-27T14:29:45.334Z,7.70
2018-05-27T14:32:11.084Z,6.83
2018-05-27T14:34:36.821Z,7.00
2018-05-27T14:37:02.584Z,6.63
2018-05-27T14:39:28.332Z,6.87
2018-05-27T14:41:54.095Z,7.77
2018-05-27T14:44:19.842Z,7.37
2018-05-27T14:46:45.609Z,7.23
2018-05-27T14:49:11.348Z,7.20
2018-05-27T14:51:37.116Z,7.77
2018-05-27T14:54:03.957Z,7.87
2018-05-27T14:56:29.704Z,7.53
2018-05-27T14:58:55.446Z,7.40
2018-05-27T15:01:21.216Z,7.77
2018-05-27T15:03:46.944Z,7.07
2018-05-27T15:06:12.675Z,7.37
2018-05-27T15:08:38.423Z,7.80
2018-05-27T15:11:04.143Z,7.63
2018-05-27T15:13:29.879Z,7.23
2018-05-27T15:15:55.599Z,6.63
2018-05-27T15:18:21.357Z,7.17
2018-05-27T15:20:47.068Z,7.50
2018-05-27T15:23:12.800Z,6.77
2018-05-27T15:25:38.535Z,7.40
2018-05-27T15:28:04.273Z,6.90
2018-05-27T15:30:29.998Z,7.13
2018-05-27T15:32:55.736Z,6.57
2018-05-27T15:35:21.464Z,6.97
2018-05-27T15:37:47.182Z,6.37
2018-05-27T15:40:12.915Z,6.07
2018-05-27T15:42:38.655Z,6.70
2018-05-27T15:45:04.375Z,7.37
2018-05-27T15:47:30.107Z,6.90
2018-05-27T15:49:55.836Z,7.40
2018-05-27T15:52:21.570Z,6.67
2018-05-27T15:54:47.292Z,6.50
2018-05-27T15:57:13.052Z,7.80
2018-05-27T15:59:38.768Z,6.80
2018-05-27T16:02:04.513Z,7.53
2018-05-27T16:04:30.247Z,7.53
2018-05-27T16:06:55.993Z,7.70
2018-05-27T16:09:21.712Z,7.47
2018-05-27T16:11:47.460Z,8.33
2018-05-27T16:14:13.180Z,8.20
2018-05-27T16:16:38.910Z,9.63
2018-05-27T16:19:04.659Z,10.37
2018-05-27T16:21:30.377Z,9.70
2018-05-27T16:23:56.115Z,9.57
2018-05-27T16:26:21.835Z,9.53
2018-05-27T16:28:47.633Z,10.17
2018-05-27T16:31:13.348Z,9.70
2018-05-27T16:33:39.083Z,9.93
2018-05-27T16:36:04.815Z,10.40
2018-05-27T16:38:30.543Z,9.70
2018-05-27T16:40:56.260Z,9.87
2018-05-27T16:43:22.013Z,10.53
2018-05-27T16:45:47.799Z,9.90
2018-05-27T16:48:13.485Z,10.53
2018-05-27T16:50:39.205Z,10.37
2018-05-27T16:53:04.941Z,10.50
2018-05-27T16:55:30.705Z,10.20
2018-05-27T16:57:56.445Z,11.27
2018-05-27T17:00:22.174Z,9.60
2018-05-27T17:02:47.915Z,11.27
2018-05-27T17:05:13.650Z,9.87
2018-05-27T17:07:39.390Z,10.13
2018-05-27T17:10:05.123Z,11.77
2018-05-27T17:12:30.867Z,9.50
2018-05-27T17:14:56.592Z,11.13
2018-05-27T17:17:22.340Z,10.93
2018-05-27T17:19:48.060Z,10.83
2018-05-27T17:22:13.811Z,11.47
2018-05-27T17:24:39.556Z,11.70
2018-05-27T17:27:05.280Z,10.77
2018-05-27T17:29:31.012Z,11.80
2018-05-27T17:31:56.740Z,12.33
2018-05-27T17:34:22.496Z,13.53
2018-05-27T17:36:48.232Z,12.93
2018-05-27T17:39:13.988Z,12.20
2018-05-27T17:41:40.956Z,12.93
2018-05-27T17:44:06.738Z,12.27
2018-05-27T17:46:32.481Z,11.97
2018-05-27T17:48:58.231Z,12.00
2018-05-27T17:51:23.964Z,12.20
2018-05-27T17:53:49.888Z,12.23
2018-05-27T17:56:15.635Z,12.23
2018-05-27T17:58:41.372Z,12.13
2018-05-27T18:01:07.197Z,12.03
2018-05-27T18:03:33.314Z,12.73
2018-05-27T18:05:59.223Z,12.70
2018-05-27T18:08:24.992Z,13.47
2018-05-27T18:10:50.799Z,13.30
2018-05-27T18:13:16.550Z,13.33
2018-05-27T18:15:42.333Z,12.40
2018-05-27T18:18:08.095Z,13.50
2018-05-27T18:20:33.807Z,13.17
2018-05-27T18:22:59.556Z,14.77
2018-05-27T18:25:25.292Z,14.43
2018-05-27T18:27:51.041Z,14.67
2018-05-27T18:30:16.760Z,14.97
2018-05-27T18:32:42.496Z,16.67
2018-05-27T18:35:08.219Z,18.23
2018-05-27T18:37:33.959Z,18.33
2018-05-27T18:39:59.684Z,19.57
2018-05-27T18:42:25.425Z,20.00
2018-05-27T18:44:51.168Z,18.80
2018-05-27T18:47:16.899Z,17.53
2018-05-27T18:49:42.648Z,18.07
2018-05-27T18:52:08.376Z,18.50
2018-05-27T18:54:34.116Z,18.17
2018-05-27T18:56:59.855Z,18.73
2018-05-27T18:59:25.595Z,19.03
2018-05-27T19:01:51.321Z,19.50
2018-05-27T19:04:17.088Z,19.70
2018-05-27T19:06:42.789Z,20.17
2018-05-27T19:09:08.543Z,18.43
2018-05-27T19:11:34.408Z,20.40
2018-05-27T19:14:00.165Z,19.30
2018-05-27T19:16:25.885Z,19.87
2018-05-27T19:18:51.636Z,19.70
2018-05-27T19:21:17.364Z,19.83
2018-05-27T19:23:43.113Z,21.57
2018-05-27T19:26:08.874Z,22.17
2018-05-27T19:28:34.596Z,22.47
2018-05-27T19:31:00.332Z,23.07
2018-05-27T19:33:26.073Z,22.67
2018-05-27T19:35:51.794Z,22.80
2018-05-27T19:38:17.533Z,22.13
2018-05-27T19:40:43.276Z,24.43
2018-05-27T19:43:09.007Z,22.83
2018-05-27T19:45:34.737Z,22.20
2018-05-27T19:48:00.524Z,21.80
2018-05-27T19:50:26.252Z,22.93
2018-05-27T19:52:51.995Z,22.47
2018-05-27T19:55:17.720Z,23.27
2018-05-27T19:57:43.556Z,23.27
2018-05-27T20:00:09.300Z,23.83
2018-05-27T20:02:35.040Z,24.27
2018-05-27T20:05:00.784Z,24.67
2018-05-27T20:07:26.524Z,24.47
2018-05-27T20:09:52.302Z,26.33
2018-05-27T20:12:17.999Z,27.30
2018-05-27T20:14:43.749Z,28.90
2018-05-27T20:17:09.484Z,29.73
2018-05-27T20:19:35.221Z,29.60
2018-05-27T20:22:00.941Z,30.83
2018-05-27T20:24:26.692Z,30.23
2018-05-27T20:26:52.421Z,29.53
2018-05-27T20:29:18.173Z,30.43
2018-05-27T20:31:43.900Z,32.10
2018-05-27T20:34:09.654Z,31.43
2018-05-27T20:36:35.401Z,33.20
2018-05-27T20:39:01.135Z,32.60
2018-05-27T20:41:26.875Z,32.57
2018-05-27T20:43:52.604Z,32.17
2018-05-27T20:46:18.357Z,30.33
2018-05-27T20:48:44.075Z,30.97
2018-05-27T20:51:09.856Z,28.33
2018-05-27T20:53:35.580Z,29.87
2018-05-27T20:56:01.328Z,31.10
2018-05-27T20:58:27.061Z,31.10
2018-05-27T21:00:52.833Z,31.93
2018-05-27T21:03:18.564Z,34.17
2018-05-27T21:05:44.311Z,35.43
2018-05-27T21:08:10.380Z,34.60
2018-05-27T21:10:36.169Z,35.87
2018-05-27T21:13:01.921Z,34.67
2018-05-27T21:15:27.693Z,35.17
2018-05-27T21:17:53.425Z,36.17
2018-05-27T21:20:19.268Z,35.70
2018-05-27T21:22:46.141Z,34.87
2018-05-27T21:25:11.904Z,36.73
2018-05-27T21:27:37.634Z,37.57
2018-05-27T21:30:03.362Z,35.93
2018-05-27T21:32:29.991Z,38.13
2018-05-27T21:34:55.736Z,35.07
2018-05-27T21:37:21.451Z,38.20
2018-05-27T21:39:49.479Z,35.50
2018-05-27T21:42:15.247Z,33.00
2018-05-27T21:44:40.960Z,36.47
2018-05-27T21:47:07.962Z,34.40
2018-05-27T21:49:33.706Z,35.13
2018-05-27T21:51:59.434Z,33.67
2018-05-27T21:54:25.196Z,32.73
2018-05-27T21:56:50.899Z,32.60
2018-05-27T21:59:16.620Z,31.30
2018-05-27T22:01:42.363Z,32.30
2018-05-27T22:04:08.219Z,31.60
2018-05-27T22:06:33.977Z,32.93
2018-05-27T22:08:59.697Z,30.80
2018-05-27T22:11:26.926Z,32.57
2018-05-27T22:13:52.688Z,32.10
2018-05-27T22:16:18.424Z,32.30
2018-05-27T22:18:44.148Z,32.03
2018-05-27T22:21:09.878Z,31.63
2018-05-27T22:23:35.599Z,31.93
2018-05-27T22:26:01.336Z,31.13
2018-05-27T22:28:27.053Z,31.63
2018-05-27T22:30:52.795Z,31.97
2018-05-27T22:33:18.523Z,30.00
2018-05-27T22:35:44.259Z,30.30
2018-05-27T22:38:09.980Z,31.40
2018-05-27T22:40:35.709Z,30.50
2018-05-27T22:43:01.444Z,30.87
2018-05-27T22:45:27.169Z,30.33
2018-05-27T22:47:52.908Z,30.43
2018-05-27T22:50:18.623Z,29.67
2018-05-27T22:52:44.361Z,29.93
2018-05-27T22:55:10.088Z,29.83
2018-05-27T22:57:35.842Z,30.03
2018-05-27T23:00:01.569Z,29.53
2018-05-27T23:02:27.304Z,28.33
2018-05-27T23:04:53.032Z,30.10
2018-05-27T23:07:18.764Z,28.67
2018-05-27T23:09:44.493Z,27.80
2018-05-27T23:12:10.233Z,28.70
2018-05-27T23:14:35.960Z,28.67
2018-05-27T23:17:01.696Z,27.70
2018-05-27T23:19:27.436Z,29.67
2018-05-27T23:21:53.165Z,29.57
2018-05-27T23:24:18.924Z,27.80
2018-05-27T23:26:44.721Z,27.00
2018-05-27T23:29:10.460Z,28.03
2018-05-27T23:31:36.192Z,26.33
2018-05-27T23:34:01.928Z,27.80
2018-05-27T23:36:27.664Z,27.47
2018-05-27T23:38:53.401Z,28.13
2018-05-27T23:41:19.160Z,26.70
2018-05-27T23:43:44.887Z,27.10
2018-05-27T23:46:10.616Z,26.63
2018-05-27T23:48:36.362Z,27.90
2018-05-27T23:51:02.093Z,27.67
2018-05-27T23:53:27.835Z,28.47
2018-05-27T23:55:53.551Z,29.27
2018-05-27T23:58:19.304Z,26.63
